Time;durP1;ratioP1;P1;durP2;ratioP2;P2;SDS_P1;SDS_P2;PMS_P1;PMS_P2;Temp;Humidity;BMP_temperature;BMP_pressure;BME280_temperature;BME280_humidity;BME280_pressure;Samples;Min_cycle;Max_cycle;Signal;HPM_P1;HPM_P2
2021/07/15 00:01:27;;;;;;;9.25;4.60;;;15.90;99.90;;;;;;5063249;28;20033;-57
2021/07/15 00:03:52;;;;;;;7.63;4.20;;;15.80;99.90;;;;;;5055686;28;20017;-57
2021/07/15 00:06:18;;;;;;;12.10;4.35;;;15.80;99.90;;;;;;5060032;28;20020;-57
2021/07/15 00:08:44;;;;;;;4.30;3.88;;;15.70;99.90;;;;;;5057734;28;20017;-57
2021/07/15 00:11:12;;;;;;;8.98;4.15;;;15.70;99.90;;;;;;5058992;28;20017;-57
2021/07/15 00:13:38;;;;;;;9.25;4.00;;;15.80;99.90;;;;;;5060030;28;20025;-57
2021/07/15 00:16:09;;;;;;;9.10;4.25;;;15.70;99.90;;;;;;5058485;28;20079;-57
2021/07/15 00:18:35;;;;;;;;;;;15.60;99.90;;;;;;5060301;28;20086;-57
2021/07/15 00:21:05;;;;;;;8.05;4.10;;;15.60;99.90;;;;;;5058576;28;19904;-57
2021/07/15 00:23:30;;;;;;;5.70;4.80;;;15.60;99.90;;;;;;5059014;28;20036;-56
2021/07/15 00:25:57;;;;;;;5.82;4.00;;;15.70;99.90;;;;;;5062352;28;20089;-57
2021/07/15 00:28:22;;;;;;;9.35;4.70;;;15.60;99.90;;;;;;5066095;28;20504;-57
2021/07/15 00:30:48;;;;;;;8.13;5.18;;;15.60;99.90;;;;;;5066371;28;20064;-57
2021/07/15 00:33:13;;;;;;;5.30;4.38;;;15.60;99.90;;;;;;5064199;28;20639;-57
2021/07/15 00:35:39;;;;;;;7.50;4.63;;;15.60;99.90;;;;;;5064872;28;20052;-57
2021/07/15 00:38:05;;;;;;;5.57;4.80;;;15.60;99.90;;;;;;5064999;28;20021;-57
2021/07/15 00:40:32;;;;;;;5.50;4.15;;;15.60;99.90;;;;;;5066470;28;20059;-57
2021/07/15 00:42:58;;;;;;;8.48;4.95;;;15.60;99.90;;;;;;5062888;28;20463;-57
2021/07/15 00:45:23;;;;;;;6.00;5.45;;;15.60;99.90;;;;;;5071082;28;20028;-57
2021/07/15 00:47:50;;;;;;;8.70;5.32;;;15.60;99.90;;;;;;5069503;28;20021;-57
2021/07/15 00:50:20;;;;;;;7.97;5.15;;;15.60;99.90;;;;;;5064230;28;20477;-57
2021/07/15 00:52:48;;;;;;;8.18;5.53;;;15.60;99.90;;;;;;5066407;28;20032;-57
2021/07/15 00:55:32;;;;;;;5.47;4.95;;;15.70;99.90;;;;;;5064289;28;20029;-57
2021/07/15 00:57:58;;;;;;;5.30;4.80;;;15.70;99.90;;;;;;5065028;28;20381;-57
2021/07/15 01:00:24;;;;;;;8.80;5.22;;;15.70;99.90;;;;;;5066535;28;20533;-57
2021/07/15 01:02:52;;;;;;;9.43;5.50;;;15.70;99.90;;;;;;5066218;28;20040;-57
2021/07/15 01:05:22;;;;;;;7.93;5.18;;;15.70;99.90;;;;;;5059447;28;20447;-57
2021/07/15 01:07:48;;;;;;;6.72;4.95;;;15.70;99.90;;;;;;5068641;28;20051;-57
2021/07/15 01:10:17;;;;;;;6.38;5.38;;;15.70;99.90;;;;;;5063111;28;20435;-57
2021/07/15 01:13:17;;;;;;;9.32;5.03;;;15.70;99.90;;;;;;5067654;28;20405;-57
2021/07/15 01:16:01;;;;;;;6.05;4.78;;;15.70;99.90;;;;;;5057169;28;20402;-57
2021/07/15 01:19:06;;;;;;;8.90;5.50;;;15.70;99.90;;;;;;5056141;28;20058;-57
2021/07/15 01:21:50;;;;;;;7.43;5.10;;;15.70;99.90;;;;;;5037901;28;20087;-57
2021/07/15 01:24:43;;;;;;;5.75;4.68;;;15.60;99.90;;;;;;5056767;28;20111;-57
2021/07/15 01:27:27;;;;;;;4.97;4.55;;;15.60;99.90;;;;;;5070404;28;20739;-57
2021/07/15 01:29:58;;;;;;;5.80;4.82;;;15.60;99.90;;;;;;5062415;28;20125;-57
2021/07/15 01:32:31;;;;;;;6.93;4.15;;;15.60;99.90;;;;;;5065719;28;20024;-57
2021/07/15 01:35:01;;;;;;;7.53;5.00;;;15.50;99.90;;;;;;5062849;28;20044;-57
2021/07/15 01:37:29;;;;;;;5.57;4.72;;;15.50;99.90;;;;;;5063288;28;20032;-57
2021/07/15 01:39:57;;;;;;;10.65;5.43;;;15.50;99.90;;;;;;5061299;28;20025;-57
2021/07/15 01:42:22;;;;;;;13.18;5.03;;;15.50;99.90;;;;;;5061455;28;20428;-56
2021/07/15 01:44:48;;;;;;;8.13;4.63;;;15.50;99.90;;;;;;5062277;28;20111;-57
2021/07/15 01:47:14;;;;;;;7.55;4.90;;;15.40;99.90;;;;;;5060918;28;20142;-57
2021/07/15 01:49:41;;;;;;;12.73;5.68;;;15.40;99.90;;;;;;5060531;28;20478;-56
2021/07/15 01:52:08;;;;;;;10.43;5.13;;;15.30;99.90;;;;;;5064976;28;20021;-56
2021/07/15 01:54:34;;;;;;;6.22;4.85;;;15.20;99.90;;;;;;5061758;28;20035;-57
2021/07/15 01:57:03;;;;;;;6.30;5.10;;;15.20;99.90;;;;;;5061423;28;20446;-56
2021/07/15 01:59:32;;;;;;;6.10;4.32;;;15.30;99.90;;;;;;5062365;28;20541;-56
2021/07/15 02:01:59;;;;;;;5.47;4.93;;;15.30;99.90;;;;;;5062050;28;20021;-57
2021/07/15 02:04:26;;;;;;;5.75;5.03;;;15.20;99.90;;;;;;5060279;28;20028;-57
2021/07/15 02:06:54;;;;;;;5.72;4.90;;;15.30;99.90;;;;;;5060470;28;20017;-56
2021/07/15 02:09:20;;;;;;;5.40;4.85;;;15.20;99.90;;;;;;5062009;28;20104;-57
2021/07/15 02:11:49;;;;;;;7.57;4.63;;;15.10;99.90;;;;;;5061836;28;20021;-56
2021/07/15 02:14:15;;;;;;;7.32;5.13;;;15.10;99.90;;;;;;5063119;28;20044;-56
2021/07/15 02:16:47;;;;;;;17.52;5.60;;;15.20;99.90;;;;;;5062388;28;20028;-57
2021/07/15 02:19:14;;;;;;;9.68;5.40;;;15.10;99.90;;;;;;5057194;28;20078;-56
2021/07/15 02:21:40;;;;;;;9.73;5.20;;;15.10;99.90;;;;;;5049556;28;20401;-56
2021/07/15 02:24:09;;;;;;;7.85;4.90;;;15.00;99.90;;;;;;5065729;28;20436;-57
2021/07/15 02:26:37;;;;;;;11.77;5.82;;;15.10;99.90;;;;;;5056927;28;20024;-57
2021/07/15 02:29:03;;;;;;;12.00;5.75;;;15.00;99.90;;;;;;5059777;28;20409;-57
2021/07/15 02:31:41;;;;;;;15.35;5.80;;;15.00;99.90;;;;;;5058102;28;20112;-57
2021/07/15 02:34:20;;;;;;;12.02;5.57;;;15.00;99.90;;;;;;5064089;28;20048;-57
2021/07/15 02:36:47;;;;;;;8.98;5.30;;;15.00;99.90;;;;;;5054047;28;20021;-57
2021/07/15 02:39:12;;;;;;;7.60;5.28;;;15.00;99.90;;;;;;5065222;28;20061;-56
2021/07/15 02:41:38;;;;;;;11.88;4.95;;;15.00;99.90;;;;;;5057786;28;20061;-57
2021/07/15 02:44:04;;;;;;;6.78;4.53;;;14.90;99.90;;;;;;5065100;28;20543;-57
2021/07/15 02:46:30;;;;;;;10.77;5.00;;;15.00;99.90;;;;;;5053059;28;20079;-57
2021/07/15 02:48:57;;;;;;;6.88;4.97;;;15.00;99.90;;;;;;5058303;28;20478;-57
2021/07/15 02:51:24;;;;;;;7.45;4.95;;;15.00;99.90;;;;;;5058044;28;20063;-57
2021/07/15 02:53:50;;;;;;;8.45;4.90;;;14.90;99.90;;;;;;5058489;28;20045;-57
2021/07/15 02:56:21;;;;;;;8.52;5.00;;;14.90;99.90;;;;;;5064878;28;20505;-57
2021/07/15 02:59:11;;;;;;;7.88;4.88;;;14.90;99.90;;;;;;5056696;28;20016;-56
2021/07/15 03:01:45;;;;;;;5.10;4.55;;;15.00;99.90;;;;;;5057759;28;20028;-56
2021/07/15 03:04:25;;;;;;;5.55;4.78;;;15.00;99.90;;;;;;5059523;28;20104;-56
2021/07/15 03:06:52;;;;;;;8.55;5.13;;;15.00;99.90;;;;;;5059148;28;20020;-57
2021/07/15 03:09:38;;;;;;;6.18;4.70;;;14.90;99.90;;;;;;5048503;28;20498;-57
2021/07/15 03:12:10;;;;;;;4.55;3.95;;;14.90;99.90;;;;;;5059854;28;20375;-56
2021/07/15 03:14:39;;;;;;;6.22;4.05;;;15.00;99.90;;;;;;5060357;28;20058;-56
2021/07/15 03:17:11;;;;;;;4.30;3.90;;;15.00;99.90;;;;;;5056625;28;20492;-57
2021/07/15 03:19:40;;;;;;;4.53;3.80;;;14.90;99.90;;;;;;5057050;28;20020;-56
2021/07/15 03:22:07;;;;;;;4.45;4.05;;;14.90;99.90;;;;;;5064302;28;20382;-56
2021/07/15 03:24:38;;;;;;;6.95;4.25;;;14.90;99.90;;;;;;5056458;28;20021;-57
2021/07/15 03:27:04;;;;;;;6.20;4.43;;;14.90;99.90;;;;;;5065369;28;20063;-57
2021/07/15 03:29:36;;;;;;;4.47;3.90;;;15.00;99.90;;;;;;5058722;28;20035;-57
2021/07/15 03:32:05;;;;;;;6.57;4.35;;;14.90;99.90;;;;;;5057549;28;20029;-57
2021/07/15 03:34:32;;;;;;;6.85;5.10;;;14.90;99.90;;;;;;5060685;28;20025;-57
2021/07/15 03:36:58;;;;;;;7.50;5.07;;;14.90;99.90;;;;;;5057672;28;20090;-57
2021/07/15 03:39:24;;;;;;;7.18;4.60;;;14.90;99.90;;;;;;5063317;28;20391;-56
2021/07/15 03:41:51;;;;;;;8.40;4.80;;;14.90;99.90;;;;;;5050894;28;20098;-57
2021/07/15 03:44:16;;;;;;;6.53;4.55;;;14.90;99.90;;;;;;5056099;28;20017;-57
2021/07/15 03:46:44;;;;;;;5.47;4.40;;;14.90;99.90;;;;;;5043407;28;20022;-57
2021/07/15 03:49:10;;;;;;;4.85;4.32;;;14.90;99.90;;;;;;5032083;28;20022;-56
2021/07/15 03:51:36;;;;;;;9.32;4.60;;;14.90;99.90;;;;;;5028248;28;20079;-56
2021/07/15 03:54:02;;;;;;;5.97;4.63;;;14.90;99.90;;;;;;5031057;28;20091;-57
2021/07/15 03:56:30;;;;;;;6.10;4.20;;;14.90;99.90;;;;;;5032386;28;20029;-57
2021/07/15 03:59:01;;;;;;;6.60;4.40;;;14.90;99.90;;;;;;5027323;28;20021;-57
2021/07/15 04:01:30;;;;;;;7.93;5.53;;;14.90;99.90;;;;;;5037411;28;20032;-57
2021/07/15 04:03:57;;;;;;;8.55;5.50;;;14.90;99.90;;;;;;5044040;28;20506;-57
2021/07/15 04:06:25;;;;;;;7.70;5.38;;;15.00;99.90;;;;;;5037245;28;20027;-57
2021/07/15 04:08:51;;;;;;;9.35;4.93;;;15.00;99.90;;;;;;5037664;28;20010;-57
2021/07/15 04:11:18;;;;;;;8.48;5.13;;;15.10;99.90;;;;;;5031856;28;20025;-56
2021/07/15 04:13:45;;;;;;;8.00;5.00;;;15.20;99.90;;;;;;5028390;28;20033;-57
2021/07/15 04:16:29;;;;;;;5.35;4.10;;;15.20;99.90;;;;;;5036747;28;20031;-57
2021/07/15 04:18:59;;;;;;;5.88;3.92;;;15.30;99.90;;;;;;5049836;28;20033;-56
2021/07/15 04:21:25;;;;;;;4.40;4.00;;;15.30;99.90;;;;;;5034336;28;20017;-57
2021/07/15 04:23:54;;;;;;;7.55;3.95;;;15.30;99.90;;;;;;5047346;28;20266;-57
2021/07/15 04:26:19;;;;;;;7.05;3.97;;;15.30;99.90;;;;;;5041266;28;20033;-56
2021/07/15 04:28:46;;;;;;;8.20;4.13;;;15.30;99.90;;;;;;5032133;28;20368;-57
2021/07/15 04:31:29;;;;;;;5.72;3.85;;;15.30;99.90;;;;;;5031772;28;20024;-57
2021/07/15 04:33:57;;;;;;;5.43;4.30;;;15.40;99.90;;;;;;5043860;28;20036;-57
2021/07/15 04:36:25;;;;;;;5.70;4.50;;;15.40;99.90;;;;;;5045523;28;20021;-57
2021/07/15 04:38:50;;;;;;;7.50;4.40;;;15.50;99.90;;;;;;5047083;28;20020;-57
2021/07/15 04:41:17;;;;;;;8.93;5.18;;;15.40;99.90;;;;;;5055637;28;20074;-57
2021/07/15 04:43:47;;;;;;;8.88;4.15;;;15.50;99.90;;;;;;5039631;28;20026;-57
2021/07/15 04:46:16;;;;;;;6.88;4.78;;;15.40;99.90;;;;;;5051593;28;20021;-57
2021/07/15 04:48:41;;;;;;;8.23;4.30;;;15.40;99.90;;;;;;5030822;28;20119;-57
2021/07/15 04:51:13;;;;;;;7.82;5.00;;;15.40;99.90;;;;;;5051922;28;20099;-57
2021/07/15 04:53:39;;;;;;;9.93;4.35;;;15.40;99.90;;;;;;5032297;28;20017;-57
2021/07/15 04:56:06;;;;;;;4.82;4.15;;;15.40;99.90;;;;;;5055661;28;20494;-57
2021/07/15 04:58:32;;;;;;;8.48;4.40;;;15.40;99.90;;;;;;5042760;28;20023;-58
2021/07/15 05:00:59;;;;;;;6.43;4.00;;;15.30;99.90;;;;;;5037216;28;20048;-57
2021/07/15 05:03:35;;;;;;;7.00;4.35;;;15.40;99.90;;;;;;5049039;28;20071;-58
2021/07/15 05:06:04;;;;;;;6.00;4.90;;;15.40;99.90;;;;;;5033384;28;20160;-57
2021/07/15 05:08:30;;;;;;;5.68;4.13;;;15.40;99.90;;;;;;5053536;28;20082;-57
2021/07/15 05:10:56;;;;;;;7.03;4.18;;;15.40;99.90;;;;;;5035309;28;20022;-57
2021/07/15 05:13:22;;;;;;;4.65;3.92;;;15.50;99.90;;;;;;5059793;28;20039;-57
2021/07/15 05:15:50;;;;;;;11.85;3.85;;;15.50;99.90;;;;;;5042077;28;20021;-57
2021/07/15 05:18:15;;;;;;;5.70;3.80;;;15.60;99.90;;;;;;5062412;28;20024;-57
2021/07/15 05:20:41;;;;;;;4.75;3.97;;;15.60;99.90;;;;;;5059199;28;20033;-57
2021/07/15 05:23:07;;;;;;;9.60;4.15;;;15.80;99.90;;;;;;5050169;28;20022;-57
2021/07/15 05:25:32;;;;;;;7.47;3.75;;;15.80;99.90;;;;;;5053648;28;20016;-57
2021/07/15 05:27:58;;;;;;;4.72;3.45;;;16.00;99.90;;;;;;5031068;28;20167;-57
2021/07/15 05:30:23;;;;;;;6.88;3.70;;;16.10;99.90;;;;;;5036765;28;20042;-57
2021/07/15 05:32:49;;;;;;;6.15;3.83;;;16.20;99.90;;;;;;5036315;28;20023;-58
2021/07/15 05:35:15;;;;;;;8.55;3.20;;;16.20;99.90;;;;;;5039783;28;20034;-57
2021/07/15 05:37:40;;;;;;;6.10;3.45;;;16.30;99.90;;;;;;5047367;28;20028;-57
2021/07/15 05:40:07;;;;;;;7.68;4.18;;;16.30;99.90;;;;;;5054940;28;20025;-57
2021/07/15 05:42:33;;;;;;;6.75;3.83;;;16.40;99.90;;;;;;5049225;28;20029;-57
2021/07/15 05:44:58;;;;;;;14.70;3.80;;;16.40;99.90;;;;;;5044636;28;20019;-57
2021/07/15 05:47:24;;;;;;;7.57;3.63;;;16.40;99.90;;;;;;5037911;28;20021;-57
2021/07/15 05:49:49;;;;;;;8.52;3.42;;;16.40;99.90;;;;;;5030464;28;20029;-57
2021/07/15 05:52:15;;;;;;;8.25;3.55;;;16.50;99.90;;;;;;5045213;28;20039;-57
2021/07/15 05:54:40;;;;;;;13.18;3.72;;;16.70;99.90;;;;;;5054870;28;20033;-57
2021/07/15 05:57:07;;;;;;;7.03;2.95;;;16.80;99.90;;;;;;5045513;28;20706;-58
2021/07/15 05:59:33;;;;;;;6.22;3.22;;;16.90;99.90;;;;;;5056095;28;20265;-58
2021/07/15 06:01:59;;;;;;;3.78;3.05;;;17.00;99.90;;;;;;5053903;28;20112;-58
2021/07/15 06:04:24;;;;;;;3.97;3.05;;;17.10;99.90;;;;;;5059470;28;20024;-58
2021/07/15 06:06:50;;;;;;;10.52;3.30;;;17.10;99.90;;;;;;5051413;28;20198;-57
2021/07/15 06:09:15;;;;;;;3.10;2.90;;;17.10;99.90;;;;;;5045087;28;20035;-57
2021/07/15 06:11:41;;;;;;;3.13;2.83;;;17.20;99.90;;;;;;5055386;28;20267;-58
2021/07/15 06:14:06;;;;;;;7.53;2.65;;;17.30;99.90;;;;;;5033791;28;20041;-57
2021/07/15 06:16:32;;;;;;;9.38;4.40;;;17.30;99.90;;;;;;5038419;28;20387;-58
2021/07/15 06:18:58;;;;;;;8.75;3.33;;;17.30;99.90;;;;;;5046132;28;20089;-58
2021/07/15 06:21:24;;;;;;;9.82;3.47;;;17.40;99.90;;;;;;5032807;28;20053;-57
2021/07/15 06:23:50;;;;;;;5.00;2.97;;;17.40;99.90;;;;;;5033451;28;20019;-58
2021/07/15 06:26:15;;;;;;;10.70;3.35;;;17.50;99.90;;;;;;5041339;28;20027;-57
2021/07/15 06:28:41;;;;;;;8.02;2.67;;;17.50;99.90;;;;;;5052686;28;20401;-58
2021/07/15 06:31:07;;;;;;;7.97;3.13;;;17.50;99.90;;;;;;5044322;28;20025;-58
2021/07/15 06:33:32;;;;;;;3.92;2.72;;;17.50;99.90;;;;;;5048597;28;20149;-57
2021/07/15 06:36:00;;;;;;;5.45;3.30;;;17.60;99.90;;;;;;5055636;28;20025;-57
2021/07/15 06:38:27;;;;;;;3.05;2.60;;;17.60;99.90;;;;;;5047886;28;20094;-57
2021/07/15 06:40:58;;;;;;;4.82;3.17;;;17.70;99.90;;;;;;5063275;28;20075;-57
2021/07/15 06:43:24;;;;;;;4.43;2.90;;;17.70;99.90;;;;;;5044492;28;20500;-58
2021/07/15 06:45:50;;;;;;;4.15;2.83;;;17.80;99.90;;;;;;5035052;28;20022;-57
2021/07/15 06:48:15;;;;;;;6.10;2.63;;;17.90;99.90;;;;;;5038152;28;20037;-58
2021/07/15 06:50:44;;;;;;;6.80;2.78;;;18.00;99.90;;;;;;5043336;28;20423;-58
2021/07/15 06:53:09;;;;;;;4.93;3.20;;;18.10;99.90;;;;;;5040365;28;20491;-57
2021/07/15 06:55:35;;;;;;;3.45;3.15;;;18.10;99.90;;;;;;5036800;28;20036;-58
2021/07/15 06:58:01;;;;;;;4.60;2.92;;;18.30;99.90;;;;;;5039721;28;20060;-58
2021/07/15 07:00:27;;;;;;;5.15;2.80;;;18.40;99.90;;;;;;5037678;28;20083;-58
2021/07/15 07:02:52;;;;;;;5.35;3.00;;;18.50;99.90;;;;;;5038848;28;20041;-57
2021/07/15 07:05:18;;;;;;;4.47;3.05;;;18.60;99.90;;;;;;5047859;28;20110;-58
2021/07/15 07:07:44;;;;;;;7.03;3.33;;;18.70;99.90;;;;;;5047395;28;20010;-57
2021/07/15 07:10:12;;;;;;;3.80;2.63;;;18.80;99.90;;;;;;5040430;28;20036;-58
2021/07/15 07:12:38;;;;;;;9.95;2.50;;;18.90;99.90;;;;;;5038045;28;20117;-56
2021/07/15 07:15:06;;;;;;;4.30;2.70;;;19.00;99.90;;;;;;5037392;28;20025;-57
2021/07/15 07:17:31;;;;;;;7.65;2.80;;;19.10;99.90;;;;;;5032263;28;20025;-58
2021/07/15 07:19:57;;;;;;;9.90;3.05;;;19.20;99.90;;;;;;5034136;28;20499;-58
2021/07/15 07:22:23;;;;;;;6.30;2.60;;;19.20;99.90;;;;;;5031835;28;20034;-58
2021/07/15 07:24:48;;;;;;;3.25;2.35;;;19.30;99.90;;;;;;5031289;28;20052;-57
2021/07/15 07:27:14;;;;;;;28.15;4.10;;;19.50;99.90;;;;;;5059028;28;20021;-58
2021/07/15 07:29:39;;;;;;;4.82;2.60;;;19.70;99.90;;;;;;5043172;28;20033;-57
2021/07/15 07:32:05;;;;;;;3.17;2.40;;;19.80;99.90;;;;;;5050915;28;20108;-58
2021/07/15 07:34:31;;;;;;;3.60;2.20;;;20.00;99.90;;;;;;5050962;28;20035;-58
2021/07/15 07:36:56;;;;;;;8.95;2.78;;;20.10;99.90;;;;;;5048916;28;20026;-58
2021/07/15 07:39:22;;;;;;;4.07;2.53;;;20.30;99.90;;;;;;5058148;28;20119;-59
2021/07/15 07:41:48;;;;;;;4.45;2.58;;;20.60;99.90;;;;;;5037118;28;20101;-58
2021/07/15 07:44:15;;;;;;;4.40;2.45;;;20.70;99.90;;;;;;5059589;28;20363;-58
2021/07/15 07:46:41;;;;;;;6.35;2.20;;;21.00;99.90;;;;;;5044109;28;20036;-56
2021/07/15 07:49:06;;;;;;;8.30;5.43;;;21.10;99.90;;;;;;5051213;28;20017;-56
2021/07/15 07:51:32;;;;;;;7.35;2.35;;;21.40;99.90;;;;;;5051561;28;20028;-55
2021/07/15 07:53:57;;;;;;;6.90;2.10;;;21.60;99.90;;;;;;5051051;28;20099;-57
2021/07/15 07:56:23;;;;;;;4.15;1.80;;;21.30;99.90;;;;;;5031551;28;21033;-57
2021/07/15 07:58:48;;;;;;;3.47;2.40;;;21.20;99.90;;;;;;5031521;28;20105;-57
2021/07/15 08:01:15;;;;;;;1.80;1.60;;;21.50;99.90;;;;;;5038873;28;20059;-57
2021/07/15 08:03:41;;;;;;;3.80;1.92;;;21.60;99.90;;;;;;5033120;28;20029;-57
2021/07/15 08:06:06;;;;;;;2.85;1.67;;;21.90;99.90;;;;;;5030246;28;20088;-58
2021/07/15 08:08:32;;;;;;;5.22;1.67;;;21.90;99.90;;;;;;5028303;28;20024;-58
2021/07/15 08:10:58;;;;;;;1.92;1.77;;;22.10;99.90;;;;;;5030378;28;20040;-58
2021/07/15 08:13:23;;;;;;;3.38;1.77;;;22.20;99.90;;;;;;5033774;28;20108;-58
2021/07/15 08:15:49;;;;;;;3.40;1.60;;;21.90;99.90;;;;;;5031800;28;20352;-58
2021/07/15 08:18:14;;;;;;;4.85;1.90;;;22.10;99.90;;;;;;5036509;28;20456;-58
2021/07/15 08:20:40;;;;;;;3.00;1.85;;;22.30;99.90;;;;;;5044105;28;20033;-58
2021/07/15 08:23:06;;;;;;;3.67;1.85;;;22.60;99.90;;;;;;5035870;28;20030;-59
2021/07/15 08:25:32;;;;;;;3.22;1.83;;;22.90;99.90;;;;;;5030589;28;20013;-58
2021/07/15 08:27:57;;;;;;;3.15;1.75;;;23.00;99.90;;;;;;5033276;28;20049;-58
2021/07/15 08:30:23;;;;;;;4.95;1.65;;;23.10;99.90;;;;;;5055291;28;20025;-58
2021/07/15 08:32:49;;;;;;;2.33;1.50;;;23.40;99.90;;;;;;5049707;28;20517;-58
2021/07/15 08:35:15;;;;;;;2.85;1.50;;;23.70;99.90;;;;;;5036852;28;20040;-58
2021/07/15 08:37:40;;;;;;;1.77;1.60;;;23.80;99.90;;;;;;5045079;28;20037;-58
2021/07/15 08:40:08;;;;;;;2.00;1.70;;;23.80;99.90;;;;;;5047996;28;20083;-58
2021/07/15 08:42:36;;;;;;;2.60;1.52;;;24.10;99.90;;;;;;5044589;28;20038;-57
2021/07/15 08:45:05;;;;;;;1.85;1.42;;;24.30;99.00;;;;;;5041823;28;20458;-57
2021/07/15 08:47:31;;;;;;;2.15;1.50;;;24.10;99.60;;;;;;5042767;28;20394;-57
2021/07/15 08:49:57;;;;;;;2.05;1.52;;;24.10;99.30;;;;;;5036446;28;20029;-58
2021/07/15 08:52:22;;;;;;;3.30;1.73;;;24.00;99.90;;;;;;5055448;28;20031;-57
2021/07/15 08:56:36;;;;;;;2.80;2.05;;;23.90;99.90;;;;;;5037750;28;20025;-57
2021/07/15 08:57:41;;;;;;;1.80;1.58;;;24.00;99.90;;;;;;5059014;28;20045;-57
2021/07/15 09:00:10;;;;;;;3.30;1.83;;;24.10;99.90;;;;;;5045857;28;20030;-57
2021/07/15 09:02:35;;;;;;;4.32;3.88;;;23.90;99.90;;;;;;5057929;28;20028;-57
2021/07/15 09:05:05;;;;;;;5.50;3.42;;;24.50;99.90;;;;;;5045828;28;20049;-58
2021/07/15 09:07:30;;;;;;;1.75;1.48;;;25.40;99.90;;;;;;5043059;28;20028;-58
2021/07/15 09:09:56;;;;;;;3.05;1.25;;;26.70;98.90;;;;;;5051313;28;20562;-58
2021/07/15 09:12:22;;;;;;;1.40;1.20;;;28.20;93.90;;;;;;5051691;28;20029;-59
2021/07/15 09:14:53;;;;;;;3.50;1.15;;;28.30;91.70;;;;;;5045175;28;20722;-58
2021/07/15 09:17:30;;;;;;;2.78;1.33;;;29.40;86.60;;;;;;5033877;28;20037;-58
2021/07/15 09:19:56;;;;;;;1.63;1.17;;;31.10;83.80;;;;;;5035432;28;20574;-58
2021/07/15 09:22:22;;;;;;;8.35;1.65;;;31.90;78.90;;;;;;5034982;28;20152;-59
2021/07/15 09:24:48;;;;;;;3.17;1.30;;;32.10;75.80;;;;;;5033468;28;20078;-59
2021/07/15 09:27:18;;;;;;;3.38;1.23;;;33.10;68.50;;;;;;5064500;28;20017;-59
2021/07/15 09:29:45;;;;;;;5.47;1.60;;;33.90;67.30;;;;;;5050327;28;20476;-59
2021/07/15 09:32:16;;;;;;;5.82;1.58;;;33.10;61.20;;;;;;5053375;28;20021;-59
2021/07/15 09:34:42;;;;;;;1.98;1.15;;;33.70;61.50;;;;;;5053118;28;20065;-59
2021/07/15 09:37:13;;;;;;;6.18;1.85;;;34.10;59.40;;;;;;5051083;28;20029;-59
2021/07/15 09:39:48;;;;;;;2.65;1.58;;;33.50;60.40;;;;;;5056706;28;20107;-59
2021/07/15 09:42:18;;;;;;;3.13;1.63;;;32.70;62.70;;;;;;5054828;28;20517;-58
2021/07/15 09:44:50;;;;;;;2.72;1.55;;;31.40;64.60;;;;;;5057332;28;20067;-58
2021/07/15 09:47:38;;;;;;;3.15;1.88;;;29.90;65.70;;;;;;5050155;28;20539;-58
2021/07/15 09:50:26;;;;;;;4.05;1.60;;;28.60;72.00;;;;;;5041342;28;20022;-58
2021/07/15 09:52:52;;;;;;;3.30;1.55;;;27.30;73.20;;;;;;5035345;28;20036;-58
2021/07/15 09:55:20;;;;;;;3.72;1.75;;;27.70;76.70;;;;;;5029709;28;20131;-58
2021/07/15 09:57:46;;;;;;;3.17;1.77;;;29.10;71.40;;;;;;5035382;28;20722;-59
2021/07/15 10:00:13;;;;;;;1.65;1.40;;;30.60;68.30;;;;;;5032105;28;20131;-59
2021/07/15 10:02:39;;;;;;;4.10;1.48;;;31.60;63.40;;;;;;5033770;28;20040;-59
2021/07/15 10:05:05;;;;;;;6.00;1.27;;;32.30;65.50;;;;;;5040202;28;20494;-59
2021/07/15 10:07:30;;;;;;;2.00;1.05;;;33.50;62.50;;;;;;5036525;28;20208;-59
2021/07/15 10:10:20;;;;;;;4.95;1.40;;;34.40;60.10;;;;;;5046785;28;20022;-59
2021/07/15 10:12:46;;;;;;;2.72;1.00;;;35.70;55.40;;;;;;5049185;28;20032;-59
2021/07/15 10:15:14;;;;;;;4.93;3.75;;;34.10;55.90;;;;;;5053451;28;20093;-59
2021/07/15 10:17:44;;;;;;;3.17;1.25;;;35.00;56.00;;;;;;5057403;28;20052;-59
2021/07/15 10:20:14;;;;;;;3.97;1.38;;;33.60;54.20;;;;;;5063278;28;20025;-59
2021/07/15 10:22:40;;;;;;;3.08;0.82;;;34.80;56.70;;;;;;5062972;28;20061;-60
2021/07/15 10:25:08;;;;;;;1.35;1.05;;;35.20;53.70;;;;;;5058636;28;20028;-60
2021/07/15 10:27:39;;;;;;;6.00;1.20;;;35.30;55.10;;;;;;5064319;28;20115;-60
2021/07/15 10:30:07;;;;;;;1.45;0.90;;;35.80;53.90;;;;;;5059242;28;20028;-60
2021/07/15 10:32:36;;;;;;;1.33;1.00;;;35.70;55.80;;;;;;5036407;28;20068;-59
2021/07/15 10:35:08;;;;;;;1.57;1.20;;;36.20;53.80;;;;;;5032478;28;20031;-60
2021/07/15 10:37:55;;;;;;;2.00;0.93;;;36.20;54.10;;;;;;5030340;28;20318;-60
2021/07/15 10:40:20;;;;;;;1.92;1.00;;;36.10;53.10;;;;;;5030823;28;20049;-60
2021/07/15 10:42:46;;;;;;;2.75;1.20;;;36.40;50.70;;;;;;5030421;28;20479;-59
2021/07/15 10:45:12;;;;;;;2.53;1.20;;;35.90;51.40;;;;;;5030405;28;20166;-60
2021/07/15 10:47:38;;;;;;;0.90;0.90;;;36.10;53.40;;;;;;5032762;28;20079;-60
2021/07/15 10:50:06;;;;;;;2.67;0.90;;;36.10;51.20;;;;;;5034228;28;20075;-59
2021/07/15 10:52:34;;;;;;;1.00;0.90;;;36.20;52.90;;;;;;5051058;28;20029;-59
2021/07/15 10:55:00;;;;;;;2.17;1.08;;;37.20;48.10;;;;;;5040498;28;20025;-58
2021/07/15 10:57:26;;;;;;;3.72;1.13;;;36.50;48.20;;;;;;5043188;28;20107;-58
2021/07/15 10:59:52;;;;;;;0.80;0.80;;;36.90;47.40;;;;;;5039562;28;20032;-60
2021/07/15 11:02:23;;;;;;;3.17;0.90;;;37.10;49.70;;;;;;5045383;28;20024;-59
2021/07/15 11:04:50;;;;;;;2.10;0.70;;;37.10;51.00;;;;;;5042304;28;20032;-57
2021/07/15 11:07:20;;;;;;;2.65;0.88;;;37.00;49.00;;;;;;5044816;28;20009;-59
2021/07/15 11:09:47;;;;;;;1.65;0.90;;;36.40;49.50;;;;;;5051740;28;20073;-59
2021/07/15 11:12:32;;;;;;;3.25;1.00;;;36.00;49.70;;;;;;5048958;28;20020;-58
2021/07/15 11:15:07;;;;;;;2.08;0.90;;;34.90;53.10;;;;;;5056494;28;20033;-58
2021/07/15 11:17:45;;;;;;;1.10;1.00;;;34.40;52.30;;;;;;5055789;28;20497;-59
2021/07/15 11:20:28;;;;;;;3.25;1.20;;;34.20;52.90;;;;;;5062143;28;20032;-59
2021/07/15 11:23:00;;;;;;;1.02;0.93;;;35.20;53.90;;;;;;5059931;28;20049;-59
2021/07/15 11:25:33;;;;;;;2.53;1.10;;;35.90;52.50;;;;;;5057634;28;20051;-59
2021/07/15 11:28:10;;;;;;;3.20;0.80;;;35.90;52.60;;;;;;5060502;28;20424;-59
2021/07/15 11:30:36;;;;;;;0.88;0.88;;;35.80;49.60;;;;;;5061308;28;20032;-59
2021/07/15 11:33:26;;;;;;;2.55;1.00;;;35.00;47.70;;;;;;5059015;28;20033;-58
2021/07/15 11:35:52;;;;;;;2.03;0.80;;;35.10;49.90;;;;;;5057774;28;20028;-59
2021/07/15 11:38:27;;;;;;;0.85;0.70;;;34.80;51.40;;;;;;5058636;28;20058;-59
2021/07/15 11:40:53;;;;;;;1.40;0.90;;;35.20;52.00;;;;;;5060663;28;20497;-59
2021/07/15 11:43:26;;;;;;;1.48;1.05;;;35.80;50.70;;;;;;5060092;28;20028;-58
2021/07/15 11:46:15;;;;;;;1.70;0.90;;;36.00;51.40;;;;;;5054895;28;20049;-59
2021/07/15 11:48:51;;;;;;;1.00;0.90;;;36.00;50.70;;;;;;5065529;28;20545;-59
2021/07/15 11:51:29;;;;;;;2.97;0.85;;;35.30;48.30;;;;;;5040703;28;20025;-59
2021/07/15 11:54:17;;;;;;;4.10;1.10;;;35.20;50.70;;;;;;5036029;28;20021;-59
2021/07/15 11:56:57;;;;;;;2.72;0.98;;;34.90;49.20;;;;;;5036799;28;20086;-58
2021/07/15 11:59:38;;;;;;;2.67;0.90;;;34.60;52.70;;;;;;5042227;28;20036;-58
2021/07/15 12:02:06;;;;;;;1.90;1.42;;;35.00;51.60;;;;;;5049041;28;20013;-58
2021/07/15 12:05:10;;;;;;;4.72;1.20;;;34.70;53.00;;;;;;5045888;28;20035;-58
2021/07/15 12:07:48;;;;;;;3.95;1.10;;;34.00;50.70;;;;;;5043974;28;20026;-57
2021/07/15 12:10:22;;;;;;;2.88;1.25;;;33.10;53.10;;;;;;5054615;28;20052;-57
2021/07/15 12:12:47;;;;;;;2.15;1.00;;;32.80;55.40;;;;;;5046485;28;20021;-56
2021/07/15 12:15:19;;;;;;;4.53;1.45;;;32.30;60.30;;;;;;5056355;28;20039;-60
2021/07/15 12:17:46;;;;;;;4.38;1.48;;;32.30;59.70;;;;;;5035626;28;20056;-59
2021/07/15 12:20:12;;;;;;;1.20;1.10;;;31.50;57.40;;;;;;5029790;28;20041;-58
2021/07/15 12:22:57;;;;;;;6.93;1.65;;;31.80;57.60;;;;;;5040584;28;20048;-58
2021/07/15 12:25:29;;;;;;;2.50;1.25;;;31.40;57.70;;;;;;5029319;28;20178;-58
2021/07/15 12:27:57;;;;;;;2.22;1.40;;;31.50;58.30;;;;;;5033707;28;20014;-58
2021/07/15 12:30:37;;;;;;;1.85;1.17;;;31.10;60.10;;;;;;5035438;28;20033;-58
2021/07/15 12:33:03;;;;;;;2.35;1.10;;;30.80;60.50;;;;;;5035735;28;20112;-58
2021/07/15 12:35:31;;;;;;;3.28;1.33;;;31.00;61.00;;;;;;5035125;28;20761;-59
2021/07/15 12:37:58;;;;;;;1.23;0.95;;;31.00;58.80;;;;;;5036605;28;20224;-58
2021/07/15 12:40:29;;;;;;;1.42;1.33;;;30.90;60.50;;;;;;5060605;28;20024;-58
2021/07/15 12:43:18;;;;;;;2.95;1.40;;;31.10;62.00;;;;;;5039277;28;20505;-58
2021/07/15 12:45:47;;;;;;;1.30;1.00;;;30.30;58.80;;;;;;5048510;28;20025;-58
2021/07/15 12:48:17;;;;;;;1.30;1.20;;;29.80;60.60;;;;;;5044164;28;20021;-58
2021/07/15 12:50:45;;;;;;;1.65;1.27;;;29.90;63.80;;;;;;5048971;28;20013;-58
2021/07/15 12:53:14;;;;;;;3.45;1.45;;;29.60;63.80;;;;;;5036811;28;20048;-58
2021/07/15 12:55:42;;;;;;;1.83;1.42;;;29.50;62.60;;;;;;5030382;28;20060;-58